Time;durP1;ratioP1;P1;durP2;ratioP2;P2;SDS_P1;SDS_P2;PMS_P1;PMS_P2;Temp;Humidity;BMP_temperature;BMP_pressure;BME280_temperature;BME280_humidity;BME280_pressure;Samples;Min_cycle;Max_cycle;Signal;HPM_P1;HPM_P2
2024/02/13 00:02:36;;;;;;;15.90;9.20;;;;;;;4.48;92.69;99631.65;129419;1263;114707;-63
2024/02/13 00:05:43;;;;;;;18.70;10.20;;;;;;;4.53;92.72;99631.81;129510;1259;114710;-64
2024/02/13 00:08:46;;;;;;;16.70;9.80;;;;;;;4.58;92.78;99632.89;129449;1259;115317;-63
2024/02/13 00:11:50;;;;;;;16.30;9.20;;;;;;;4.62;92.88;99627.63;129393;1259;114744;-63
2024/02/13 00:14:54;;;;;;;17.00;10.10;;;;;;;4.66;92.86;99634.34;129677;1280;128833;-63
2024/02/13 00:17:57;;;;;;;18.40;10.20;;;;;;;4.72;93.05;99634.35;129873;1280;114672;-63
2024/02/13 00:20:59;;;;;;;14.80;10.30;;;;;;;4.78;93.11;99638.57;129862;1261;114712;-63
2024/02/13 00:24:01;;;;;;;18.60;11.00;;;;;;;4.84;93.35;99640.98;129713;1261;114728;-65
2024/02/13 00:27:04;;;;;;;19.80;10.60;;;;;;;4.90;93.37;99640.59;129577;1261;114716;-63
2024/02/13 00:30:09;;;;;;;19.40;10.60;;;;;;;4.95;93.42;99644.45;129794;1261;115152;-65
2024/02/13 00:33:11;;;;;;;17.70;10.50;;;;;;;5.02;93.53;99644.38;129517;1280;127411;-63
2024/02/13 00:36:13;;;;;;;17.10;10.40;;;;;;;5.09;93.46;99649.64;129479;1261;115267;-64
2024/02/13 00:39:16;;;;;;;18.00;9.90;;;;;;;5.14;93.68;99653.67;129483;1261;114720;-63
2024/02/13 00:42:18;;;;;;;18.60;9.70;;;;;;;5.21;93.75;99663.52;129435;1257;114792;-63
2024/02/13 00:45:20;;;;;;;18.80;9.60;;;;;;;5.27;93.61;99666.84;129418;1262;115272;-63
2024/02/13 00:48:23;;;;;;;17.00;9.60;;;;;;;5.32;93.67;99666.79;129555;1261;115004;-62
2024/02/13 00:51:26;;;;;;;16.80;10.40;;;;;;;5.39;93.51;99672.92;129457;1280;114787;-62
2024/02/13 00:54:29;;;;;;;15.60;10.10;;;;;;;5.44;93.35;99674.70;129496;1280;114725;-63
2024/02/13 00:57:31;;;;;;;16.30;9.50;;;;;;;5.46;93.27;99686.11;129480;1261;114797;-65
2024/02/13 01:00:33;;;;;;;15.70;9.40;;;;;;;5.46;93.19;99687.34;129461;1261;114731;-63
2024/02/13 01:03:36;;;;;;;11.70;7.80;;;;;;;5.46;93.22;99688.93;129465;1261;114735;-63
2024/02/13 01:06:38;;;;;;;17.20;9.90;;;;;;;5.42;92.66;99693.36;129464;1257;114717;-63
2024/02/13 01:09:40;;;;;;;16.10;9.70;;;;;;;5.35;92.61;99689.16;129497;1257;114787;-64
2024/02/13 01:12:42;;;;;;;14.50;8.20;;;;;;;5.28;92.35;99694.40;129610;1259;114784;-63
2024/02/13 01:15:45;;;;;;;15.80;9.10;;;;;;;5.20;92.25;99693.30;129394;1263;128666;-63
2024/02/13 01:18:50;;;;;;;14.80;9.60;;;;;;;5.11;92.27;99698.03;129570;1261;115778;-64
2024/02/13 01:21:52;;;;;;;13.20;9.20;;;;;;;5.04;92.17;99701.45;129548;1259;114786;-63
2024/02/13 01:24:56;;;;;;;18.60;9.00;;;;;;;4.97;92.14;99703.48;129768;1272;114654;-63
2024/02/13 01:27:58;;;;;;;15.10;10.00;;;;;;;4.89;92.00;99705.75;129614;1280;253961;-65
2024/02/13 01:31:02;;;;;;;16.00;10.00;;;;;;;4.80;91.88;99713.10;129673;1261;115088;-63
2024/02/13 01:34:07;;;;;;;17.20;8.40;;;;;;;4.71;91.97;99715.38;129615;1277;114737;-63
2024/02/13 01:37:09;;;;;;;14.50;8.40;;;;;;;4.63;91.89;99720.60;129575;1260;114760;-63
2024/02/13 01:40:12;;;;;;;14.60;9.00;;;;;;;4.56;92.10;99721.37;129744;1261;115035;-63
2024/02/13 01:43:14;;;;;;;19.20;9.20;;;;;;;4.48;92.09;99730.84;129604;1261;114726;-65
2024/02/13 01:46:19;;;;;;;19.60;10.00;;;;;;;4.43;92.34;99737.55;129626;1262;115136;-64
2024/02/13 01:49:21;;;;;;;18.50;9.80;;;;;;;4.42;92.82;99741.48;129425;1261;114709;-63
2024/02/13 01:52:23;;;;;;;14.80;7.70;;;;;;;4.45;93.35;99743.30;129501;1259;114982;-63
2024/02/13 01:55:28;;;;;;;10.80;6.30;;;;;;;4.53;93.96;99742.33;129771;1258;115372;-63
2024/02/13 01:58:30;;;;;;;12.20;7.50;;;;;;;4.63;94.47;99741.65;129341;1264;114808;-63
2024/02/13 02:01:33;;;;;;;16.90;8.40;;;;;;;4.73;94.72;99741.48;129503;1261;114743;-62
2024/02/13 02:04:38;;;;;;;14.10;8.60;;;;;;;4.84;94.67;99746.79;129431;1280;115076;-63
2024/02/13 02:07:40;;;;;;;14.20;8.00;;;;;;;4.94;94.68;99749.45;129286;1259;114816;-63
2024/02/13 02:10:44;;;;;;;16.50;8.90;;;;;;;5.03;94.66;99754.42;129512;1261;114809;-63
2024/02/13 02:13:47;;;;;;;16.90;8.80;;;;;;;5.09;94.46;99749.64;129549;1261;114727;-63
2024/02/13 02:16:52;;;;;;;14.90;8.30;;;;;;;5.10;94.26;99753.84;129496;1264;115227;-64
2024/02/13 02:19:56;;;;;;;14.30;8.70;;;;;;;5.09;93.89;99752.09;129415;1266;128742;-63
2024/02/13 02:22:58;;;;;;;13.80;8.30;;;;;;;5.06;93.76;99759.09;129358;1264;114774;-63
2024/02/13 02:26:02;;;;;;;14.00;9.30;;;;;;;5.01;93.52;99762.65;129405;1273;114875;-63
2024/02/13 02:29:05;;;;;;;14.60;8.30;;;;;;;4.95;93.70;99766.75;129500;1261;114679;-63
2024/02/13 02:32:09;;;;;;;16.60;9.20;;;;;;;4.89;93.49;99774.38;129435;1273;114707;-63
2024/02/13 02:35:11;;;;;;;18.30;10.00;;;;;;;4.84;93.55;99781.27;129415;1261;128966;-63
2024/02/13 02:38:13;;;;;;;14.70;9.20;;;;;;;4.81;93.57;99784.02;129546;1261;114701;-63
2024/02/13 02:41:15;;;;;;;15.00;9.20;;;;;;;4.80;93.79;99794.52;129506;1259;114800;-65
2024/02/13 02:44:19;;;;;;;17.10;10.10;;;;;;;4.78;94.05;99800.25;129527;1261;114729;-62
2024/02/13 02:47:22;;;;;;;16.30;10.20;;;;;;;4.76;93.99;99799.41;129480;1263;114765;-63
2024/02/13 02:50:24;;;;;;;17.70;10.40;;;;;;;4.73;94.05;99803.06;129474;1267;115381;-63
2024/02/13 02:53:26;;;;;;;18.20;9.90;;;;;;;4.71;94.08;99808.77;129391;1271;114767;-65
2024/02/13 02:56:30;;;;;;;17.90;8.10;;;;;;;4.73;94.13;99813.31;129657;1262;114678;-63
2024/02/13 02:59:32;;;;;;;16.30;9.90;;;;;;;4.75;94.42;99814.66;129523;1262;114765;-63
2024/02/13 03:02:35;;;;;;;13.00;8.50;;;;;;;4.76;94.18;99820.83;129510;1262;114752;-63
2024/02/13 03:05:37;;;;;;;14.50;9.50;;;;;;;4.77;94.22;99825.21;129368;1273;114904;-63
2024/02/13 03:08:40;;;;;;;14.20;7.80;;;;;;;4.77;94.31;99827.86;129481;1280;114813;-63
2024/02/13 03:11:42;;;;;;;13.30;9.20;;;;;;;4.76;94.27;99831.78;129476;1280;114972;-63
2024/02/13 03:14:44;;;;;;;16.20;9.60;;;;;;;4.75;94.19;99830.41;129397;1259;114868;-63
2024/02/13 03:17:48;;;;;;;12.90;8.10;;;;;;;4.72;93.92;99836.15;129469;1261;114817;-62
2024/02/13 03:20:50;;;;;;;15.60;9.10;;;;;;;4.68;93.81;99841.43;129451;1280;114809;-63
2024/02/13 03:23:52;;;;;;;14.30;7.70;;;;;;;4.63;93.86;99851.48;129399;1271;114699;-63
2024/02/13 03:26:55;;;;;;;16.90;7.60;;;;;;;4.58;93.77;99852.54;129617;1261;114814;-63
2024/02/13 03:29:58;;;;;;;12.30;8.10;;;;;;;4.52;93.88;99856.08;129580;1261;114806;-63
2024/02/13 03:33:00;;;;;;;18.00;9.60;;;;;;;4.47;93.93;99862.25;129471;1280;114712;-63
2024/02/13 03:36:03;;;;;;;14.30;8.70;;;;;;;4.43;93.96;99873.87;129485;1259;114698;-63
2024/02/13 03:39:06;;;;;;;15.60;8.60;;;;;;;4.40;94.11;99879.98;129533;1261;115217;-63
2024/02/13 03:42:09;;;;;;;13.50;8.40;;;;;;;4.39;94.40;99886.89;129406;1263;114730;-63
2024/02/13 03:45:11;;;;;;;13.20;7.60;;;;;;;4.43;94.40;99894.38;129594;1261;114794;-63
2024/02/13 03:48:14;;;;;;;13.30;8.30;;;;;;;4.45;94.70;99899.30;129566;1259;114724;-63
2024/02/13 03:51:16;;;;;;;13.80;8.20;;;;;;;4.48;94.65;99908.91;129446;1259;115147;-63
2024/02/13 03:54:18;;;;;;;14.60;8.60;;;;;;;4.51;94.73;99912.70;129632;1280;114730;-63
2024/02/13 03:57:20;;;;;;;15.20;9.10;;;;;;;4.53;94.52;99916.53;129538;1280;114735;-63
2024/02/13 04:00:22;;;;;;;14.20;7.80;;;;;;;4.53;94.56;99918.48;129540;1273;114887;-63
2024/02/13 04:03:26;;;;;;;14.50;7.20;;;;;;;4.51;94.37;99922.79;129771;1264;115169;-63
2024/02/13 04:06:28;;;;;;;15.10;8.90;;;;;;;4.47;94.17;99928.58;129489;1273;115155;-63
2024/02/13 04:09:34;;;;;;;14.90;7.60;;;;;;;4.43;94.02;99933.64;129399;1269;114721;-63
2024/02/13 04:12:37;;;;;;;12.40;7.50;;;;;;;4.38;93.99;99937.50;129402;1278;129144;-63
2024/02/13 04:15:40;;;;;;;9.20;5.50;;;;;;;4.35;94.25;99944.13;129489;1262;114817;-63
2024/02/13 04:18:42;;;;;;;12.00;7.00;;;;;;;4.37;94.62;99944.98;129475;1271;115474;-63
2024/02/13 04:21:45;;;;;;;10.90;6.90;;;;;;;4.41;94.71;99951.73;129587;1262;116356;-63
2024/02/13 04:24:47;;;;;;;12.40;8.00;;;;;;;4.44;94.81;99951.98;129621;1259;115368;-63
2024/02/13 04:27:49;;;;;;;11.20;6.00;;;;;;;4.46;94.69;99957.77;129375;1270;114720;-63
2024/02/13 04:30:51;;;;;;;13.60;6.90;;;;;;;4.48;94.68;99960.20;129471;1262;115351;-63
2024/02/13 04:33:54;;;;;;;12.60;7.10;;;;;;;4.49;94.55;99965.63;129262;1280;128433;-63
2024/02/13 04:36:57;;;;;;;13.90;7.20;;;;;;;4.52;94.80;99971.56;129520;1272;114811;-62
2024/02/13 04:40:00;;;;;;;11.60;6.40;;;;;;;4.55;94.63;99972.70;129554;1261;114750;-63
2024/02/13 04:43:02;;;;;;;15.80;6.40;;;;;;;4.58;94.66;99977.75;129520;1271;114803;-62
2024/02/13 04:46:04;;;;;;;14.50;7.30;;;;;;;4.61;94.64;99980.50;129528;1262;114745;-63
2024/02/13 04:49:06;;;;;;;12.30;7.10;;;;;;;4.66;94.85;99985.29;129368;1263;114792;-62
2024/02/13 04:52:09;;;;;;;11.70;6.90;;;;;;;4.72;94.79;99984.41;129467;1264;115327;-62
2024/02/13 04:55:10;;;;;;;16.00;8.00;;;;;;;4.77;94.82;99983.38;129557;1261;114719;-62
2024/02/13 04:58:17;;;;;;;13.10;8.20;;;;;;;4.79;94.57;99988.63;129396;1276;114981;-62
2024/02/13 05:01:19;;;;;;;14.40;6.80;;;;;;;4.80;94.48;99989.47;129345;1261;114787;-63
2024/02/13 05:07:29;;;;;;;13.90;7.80;;;;;;;4.80;94.15;99996.55;129321;1267;114790;-63
2024/02/13 05:10:32;;;;;;;14.10;9.00;;;;;;;4.78;94.13;100002.98;129400;1280;115163;-63
2024/02/13 05:13:34;;;;;;;15.30;8.10;;;;;;;4.75;94.21;100004.12;129483;1264;114702;-63
2024/02/13 05:16:38;;;;;;;15.50;8.80;;;;;;;4.73;94.13;100008.78;129639;1262;114729;-62
2024/02/13 05:19:40;;;;;;;13.30;8.00;;;;;;;4.69;94.09;100014.92;129819;1271;114724;-63
2024/02/13 05:22:42;;;;;;;13.90;9.10;;;;;;;4.64;93.71;100017.36;129419;1262;114765;-62
2024/02/13 05:25:45;;;;;;;15.20;8.30;;;;;;;4.61;94.06;100021.02;129593;1275;114741;-62
2024/02/13 05:28:48;;;;;;;14.60;8.30;;;;;;;4.58;94.22;100025.50;129606;1265;114791;-62
2024/02/13 05:31:51;;;;;;;16.10;9.10;;;;;;;4.59;94.36;100026.91;129585;1264;127706;-63
2024/02/13 05:34:53;;;;;;;14.90;9.40;;;;;;;4.58;94.31;100029.23;129751;1262;114694;-62
2024/02/13 05:37:56;;;;;;;15.00;9.40;;;;;;;4.57;94.30;100036.16;129614;1274;114786;-62
2024/02/13 05:40:58;;;;;;;11.80;6.80;;;;;;;4.56;94.30;100046.06;129550;1261;114700;-62
2024/02/13 05:44:02;;;;;;;15.20;9.70;;;;;;;4.58;94.59;100053.62;129345;1264;115423;-62
2024/02/13 05:47:06;;;;;;;16.10;8.20;;;;;;;4.61;94.51;100056.75;129504;1262;114795;-63
2024/02/13 05:50:08;;;;;;;16.10;9.40;;;;;;;4.64;94.91;100061.05;129467;1271;114762;-63
2024/02/13 05:53:10;;;;;;;13.80;8.20;;;;;;;4.67;94.91;100066.62;129495;1271;115111;-63
2024/02/13 05:56:12;;;;;;;17.60;9.30;;;;;;;4.72;94.92;100071.98;129546;1261;114806;-63
2024/02/13 05:59:14;;;;;;;16.90;9.80;;;;;;;4.76;95.00;100075.23;129559;1271;114756;-62
2024/02/13 06:02:17;;;;;;;15.40;9.20;;;;;;;4.79;94.77;100079.57;129594;1263;114787;-62
2024/02/13 06:05:20;;;;;;;13.40;7.50;;;;;;;4.80;94.58;100084.51;129458;1280;115281;-63
2024/02/13 06:08:22;;;;;;;17.40;9.30;;;;;;;4.80;94.62;100088.91;129492;1261;114731;-62
2024/02/13 06:11:25;;;;;;;17.20;9.00;;;;;;;4.79;94.52;100099.02;129315;1271;127527;-62
2024/02/13 06:14:27;;;;;;;16.70;9.50;;;;;;;4.78;94.31;100095.70;129575;1257;115162;-62
2024/02/13 06:17:29;;;;;;;15.60;8.90;;;;;;;4.77;94.31;100105.64;129521;1270;114832;-62
2024/02/13 06:20:31;;;;;;;17.00;9.30;;;;;;;4.75;94.21;100110.27;129419;1262;114788;-63
2024/02/13 06:23:33;;;;;;;20.70;9.90;;;;;;;4.75;94.35;100117.70;129373;1262;114699;-62
2024/02/13 06:26:37;;;;;;;16.50;8.30;;;;;;;4.77;94.57;100119.98;129446;1258;115194;-63
2024/02/13 06:29:39;;;;;;;14.70;8.30;;;;;;;4.78;94.40;100121.35;129488;1266;114746;-62
2024/02/13 06:32:41;;;;;;;17.50;8.80;;;;;;;4.79;94.45;100126.27;129558;1257;114841;-62
2024/02/13 06:35:43;;;;;;;17.50;9.10;;;;;;;4.81;94.52;100133.98;129489;1262;114811;-62
2024/02/13 06:38:46;;;;;;;13.40;8.00;;;;;;;4.82;94.41;100139.79;129448;1257;114962;-62
2024/02/13 06:41:48;;;;;;;15.80;9.30;;;;;;;4.83;94.43;100139.23;129442;1258;115239;-62
2024/02/13 06:44:50;;;;;;;16.00;9.40;;;;;;;4.85;94.36;100145.38;129406;1265;115259;-62
2024/02/13 06:47:53;;;;;;;18.70;10.30;;;;;;;4.88;94.47;100146.91;129427;1280;114749;-62
2024/02/13 06:50:55;;;;;;;18.60;9.40;;;;;;;4.93;94.50;100152.06;129495;1271;114835;-63
2024/02/13 06:54:00;;;;;;;17.30;9.90;;;;;;;4.95;94.42;100148.11;129447;1270;114826;-62
2024/02/13 06:57:03;;;;;;;;;;;;;;;4.97;94.04;100146.97;129355;1265;114880;-63
2024/02/13 07:00:09;;;;;;;17.30;9.50;;;;;;;4.99;94.33;100146.39;129511;1263;114718;-62
2024/02/13 07:03:11;;;;;;;19.20;10.90;;;;;;;5.04;94.29;100150.48;129416;1265;115212;-62
2024/02/13 07:06:17;;;;;;;17.20;10.00;;;;;;;5.09;94.23;100146.47;129441;1273;114747;-62
2024/02/13 07:09:19;;;;;;;18.70;11.00;;;;;;;5.14;94.30;100144.89;129460;1280;114707;-62
2024/02/13 07:12:21;;;;;;;18.40;10.20;;;;;;;5.22;94.27;100149.29;129538;1263;115327;-63
2024/02/13 07:15:24;;;;;;;18.20;9.90;;;;;;;5.30;94.36;100153.63;129497;1261;115088;-63
2024/02/13 07:18:26;;;;;;;19.00;9.80;;;;;;;5.43;94.55;100161.75;129704;1280;114837;-63
2024/02/13 07:21:33;;;;;;;17.40;9.20;;;;;;;5.55;94.66;100167.58;129410;1275;114691;-62
2024/02/13 07:24:36;;;;;;;19.00;10.60;;;;;;;5.66;94.64;100167.77;129381;1262;128957;-62
2024/02/13 07:27:40;;;;;;;21.60;11.30;;;;;;;5.76;94.38;100175.06;129451;1261;114755;-62
2024/02/13 07:30:42;;;;;;;18.90;10.40;;;;;;;5.84;94.32;100180.48;129462;1261;114811;-62
2024/02/13 07:33:47;;;;;;;22.50;10.40;;;;;;;5.92;94.25;100181.66;129631;1271;114784;-62
2024/02/13 07:36:49;;;;;;;18.00;9.20;;;;;;;5.98;94.15;100185.39;129623;1280;114802;-63
2024/02/13 07:39:52;;;;;;;20.80;10.70;;;;;;;6.04;94.26;100193.52;129510;1264;115336;-62
2024/02/13 07:42:54;;;;;;;22.90;10.40;;;;;;;6.11;94.00;100196.50;129654;1262;114866;-62
2024/02/13 07:45:56;;;;;;;16.80;9.40;;;;;;;6.17;93.97;100206.23;129546;1258;114780;-63
2024/02/13 07:48:59;;;;;;;20.00;10.00;;;;;;;6.22;93.87;100214.92;129560;1258;114731;-63
2024/02/13 07:52:01;;;;;;;16.00;10.30;;;;;;;6.28;93.73;100214.94;129496;1262;114764;-62
2024/02/13 07:55:04;;;;;;;17.20;8.90;;;;;;;6.30;93.53;100217.70;129659;1258;114815;-62
2024/02/13 07:58:06;;;;;;;20.50;10.80;;;;;;;6.31;93.44;100219.61;129742;1271;114738;-62
2024/02/13 08:01:09;;;;;;;20.20;11.20;;;;;;;6.34;93.37;100221.12;129515;1257;115348;-63
2024/02/13 08:04:12;;;;;;;18.30;11.00;;;;;;;6.38;93.05;100220.45;129558;1261;115193;-63
2024/02/13 08:07:15;;;;;;;18.40;11.30;;;;;;;6.48;93.41;100226.52;129688;1271;115259;-62
2024/02/13 08:10:17;;;;;;;22.20;11.60;;;;;;;6.60;93.39;100226.98;129450;1257;114731;-63
2024/02/13 08:13:20;;;;;;;20.50;11.10;;;;;;;6.74;93.57;100231.82;129519;1271;114745;-62
2024/02/13 08:16:22;;;;;;;21.40;10.90;;;;;;;6.81;93.37;100235.13;129773;1262;115279;-62
2024/02/13 08:19:26;;;;;;;21.80;10.60;;;;;;;6.84;92.82;100236.09;129565;1257;115316;-62
2024/02/13 08:22:28;;;;;;;19.30;11.10;;;;;;;6.84;92.38;100244.77;129878;1258;128501;-62
2024/02/13 08:25:30;;;;;;;19.80;11.70;;;;;;;6.84;92.41;100247.61;129393;1262;114744;-62
2024/02/13 08:28:32;;;;;;;22.40;11.00;;;;;;;6.87;92.40;100253.57;129476;1271;115270;-63
2024/02/13 08:31:35;;;;;;;21.20;11.90;;;;;;;6.93;92.53;100247.48;129463;1257;114671;-62
2024/02/13 08:34:38;;;;;;;18.40;11.90;;;;;;;7.02;92.45;100250.38;129608;1263;114765;-62
2024/02/13 08:37:41;;;;;;;20.10;11.70;;;;;;;7.09;92.11;100253.86;129383;1263;114962;-62
2024/02/13 08:40:43;;;;;;;17.90;11.20;;;;;;;7.13;91.99;100257.77;129412;1263;114727;-62
2024/02/13 08:43:47;;;;;;;20.90;10.20;;;;;;;7.18;91.70;100262.23;129663;1257;114833;-62
2024/02/13 08:46:49;;;;;;;20.90;12.80;;;;;;;7.25;91.89;100265.17;129595;1280;114720;-62
2024/02/13 08:49:51;;;;;;;19.90;11.60;;;;;;;7.27;91.48;100272.92;129461;1263;115274;-62
2024/02/13 08:52:53;;;;;;;20.20;11.80;;;;;;;7.26;91.20;100285.02;129758;1271;114825;-62
2024/02/13 08:55:55;;;;;;;18.60;10.30;;;;;;;7.24;90.96;100286.35;129910;1261;114763;-62
2024/02/13 08:58:59;;;;;;;18.40;12.40;;;;;;;7.24;90.97;100292.74;129861;1271;114849;-62
2024/02/13 09:02:01;;;;;;;21.10;11.60;;;;;;;7.28;90.95;100297.22;129527;1280;115042;-62
2024/02/13 09:05:04;;;;;;;18.10;10.90;;;;;;;7.31;91.12;100301.55;129547;1274;114713;-62
2024/02/13 09:08:06;;;;;;;17.80;11.20;;;;;;;7.36;91.32;100304.05;129479;1280;114833;-62
2024/02/13 09:11:08;;;;;;;17.60;10.40;;;;;;;7.41;91.28;100304.91;129427;1258;114702;-63
2024/02/13 09:14:11;;;;;;;19.40;9.50;;;;;;;7.48;91.24;100307.00;129503;1263;115356;-63
2024/02/13 09:17:14;;;;;;;16.00;9.70;;;;;;;7.53;90.92;100310.36;129470;1272;114883;-63
2024/02/13 09:20:16;;;;;;;15.90;10.10;;;;;;;7.55;90.46;100311.67;129496;1262;114629;-62
2024/02/13 09:23:18;;;;;;;14.90;9.10;;;;;;;7.60;90.25;100319.71;129271;1280;128695;-62
2024/02/13 09:26:20;;;;;;;16.60;11.30;;;;;;;7.66;90.28;100321.24;129856;1280;115168;-63
2024/02/13 09:29:23;;;;;;;17.60;9.20;;;;;;;7.74;89.70;100326.13;129579;1258;115082;-63
2024/02/13 09:32:25;;;;;;;22.20;13.40;;;;;;;7.77;89.56;100325.66;129642;1257;115035;-62
2024/02/13 09:35:29;;;;;;;14.10;9.90;;;;;;;7.79;89.31;100331.78;129872;1257;114764;-63
2024/02/13 09:38:32;;;;;;;19.10;12.40;;;;;;;7.80;88.84;100337.10;129417;1266;115120;-62
2024/02/13 09:41:36;;;;;;;16.70;9.40;;;;;;;7.82;89.00;100339.34;129428;1272;115159;-62
2024/02/13 09:44:38;;;;;;;25.10;14.40;;;;;;;7.90;89.31;100341.86;129393;1264;114767;-62
2024/02/13 09:47:41;;;;;;;18.00;12.10;;;;;;;7.99;89.27;100345.64;129357;1280;115374;-62
2024/02/13 09:50:44;;;;;;;20.60;11.90;;;;;;;8.05;89.19;100349.65;129507;1260;115255;-62
2024/02/13 09:53:47;;;;;;;15.10;9.30;;;;;;;8.11;88.86;100350.19;129564;1258;114812;-62
2024/02/13 09:56:51;;;;;;;13.10;9.20;;;;;;;8.12;88.07;100351.20;129283;1280;114831;-62
2024/02/13 09:59:56;;;;;;;10.80;6.60;;;;;;;8.07;87.33;100357.59;129267;1257;128042;-63
2024/02/13 10:03:02;;;;;;;13.20;8.20;;;;;;;8.01;87.08;100361.21;129468;1276;115366;-63
2024/02/13 10:06:04;;;;;;;;;;;;;;;8.01;87.19;100366.75;129432;1258;114737;-63
2024/02/13 10:09:11;;;;;;;11.10;7.60;;;;;;;8.05;87.36;100369.96;129485;1257;114813;-62
2024/02/13 10:12:14;;;;;;;12.80;7.70;;;;;;;8.11;87.29;100372.77;129394;1257;114890;-63
2024/02/13 10:15:16;;;;;;;11.20;7.30;;;;;;;8.13;86.91;100378.36;129442;1258;114855;-62
2024/02/13 10:18:20;;;;;;;13.80;7.50;;;;;;;8.17;87.04;100383.00;129574;1257;115387;-62
2024/02/13 10:21:25;;;;;;;15.60;8.60;;;;;;;8.21;86.80;100384.13;129476;1259;114713;-63
2024/02/13 10:24:28;;;;;;;14.20;9.00;;;;;;;8.24;86.79;100388.26;129512;1258;114717;-62
2024/02/13 10:27:30;;;;;;;12.30;7.70;;;;;;;8.30;86.51;100389.98;129623;1274;114796;-62
2024/02/13 10:30:32;;;;;;;10.80;6.80;;;;;;;8.34;85.97;100394.83;129720;1257;114969;-62
2024/02/13 10:33:41;;;;;;;12.40;7.20;;;;;;;8.39;85.90;100395.19;129547;1261;114793;-62
2024/02/13 10:36:44;;;;;;;10.00;5.50;;;;;;;8.44;84.85;100402.80;129444;1263;115002;-63
2024/02/13 10:39:48;;;;;;;9.10;6.00;;;;;;;8.41;84.54;100404.71;129535;1263;115332;-62
2024/02/13 10:42:50;;;;;;;10.50;5.30;;;;;;;8.35;84.01;100411.48;129400;1257;114803;-62
2024/02/13 10:45:57;;;;;;;8.10;5.00;;;;;;;8.30;83.66;100412.58;129781;1277;114698;-62
2024/02/13 10:49:18;;;;;;;7.40;4.80;;;;;;;8.27;83.61;100417.34;129691;1263;128533;-62
2024/02/13 10:52:21;;;;;;;9.50;4.60;;;;;;;8.21;83.30;100415.39;129424;1280;114732;-62
2024/02/13 10:55:24;;;;;;;11.80;6.20;;;;;;;8.17;83.22;100419.64;129684;1257;114728;-63
2024/02/13 10:58:29;;;;;;;7.50;4.20;;;;;;;8.12;82.54;100423.95;129452;1257;114792;-62
2024/02/13 11:01:34;;;;;;;6.50;4.40;;;;;;;8.00;82.52;100423.31;129392;1262;114888;-62
2024/02/13 11:04:40;;;;;;;9.20;4.40;;;;;;;7.95;82.54;100421.73;129404;1273;129253;-62
2024/02/13 11:07:43;;;;;;;13.00;7.80;;;;;;;7.97;82.91;100427.16;129430;1262;114771;-62
2024/02/13 11:10:46;;;;;;;11.10;5.30;;;;;;;7.99;82.68;100429.20;129529;1261;115158;-62
2024/02/13 11:13:52;;;;;;;8.40;4.30;;;;;;;8.04;82.87;100428.16;129513;1258;115362;-62
2024/02/13 11:16:59;;;;;;;6.00;3.50;;;;;;;8.00;82.05;100433.25;129462;1280;114796;-62
2024/02/13 11:20:09;;;;;;;8.90;4.00;;;;;;;7.93;81.80;100432.83;129522;1259;129139;-62
2024/02/13 11:23:13;;;;;;;11.40;5.20;;;;;;;7.88;81.90;100430.14;129423;1263;115152;-62
2024/02/13 11:26:18;;;;;;;12.60;5.50;;;;;;;7.87;81.76;100430.18;129423;1261;114691;-62
2024/02/13 11:29:21;;;;;;;8.20;4.30;;;;;;;7.87;81.74;100429.28;129453;1261;114727;-62
2024/02/13 11:32:31;;;;;;;6.40;3.50;;;;;;;7.91;81.60;100429.15;129466;1263;115526;-62
2024/02/13 11:35:41;;;;;;;17.90;7.80;;;;;;;8.01;82.10;100427.55;129465;1280;127771;-62
2024/02/13 11:38:44;;;;;;;16.00;6.40;;;;;;;8.13;82.24;100432.07;129498;1278;114683;-62
2024/02/13 11:41:57;;;;;;;13.70;6.50;;;;;;;8.26;81.82;100432.11;129477;1280;115109;-62
2024/02/13 11:45:02;;;;;;;10.60;5.50;;;;;;;8.38;81.90;100431.33;129431;1280;114734;-62
2024/02/13 11:48:06;;;;;;;16.40;6.80;;;;;;;8.51;81.49;100431.73;129357;1276;115312;-62
2024/02/13 11:51:10;;;;;;;7.30;3.80;;;;;;;8.65;81.14;100433.19;129390;1280;128517;-62
2024/02/13 11:54:13;;;;;;;15.20;7.10;;;;;;;8.77;80.87;100433.41;129462;1262;114802;-62
2024/02/13 11:57:17;;;;;;;6.50;3.60;;;;;;;8.85;80.58;100432.90;129520;1273;114763;-62
2024/02/13 12:00:20;;;;;;;5.80;3.10;;;;;;;8.94;80.16;100436.09;129464;1257;116425;-62
2024/02/13 12:03:25;;;;;;;6.00;3.50;;;;;;;9.04;80.13;100439.23;129534;1258;114747;-62
2024/02/13 12:06:27;;;;;;;7.40;4.00;;;;;;;9.15;79.95;100446.31;129373;1280;128777;-62
2024/02/13 12:09:30;;;;;;;4.20;2.80;;;;;;;9.23;79.41;100445.63;129562;1261;114804;-62
2024/02/13 12:12:34;;;;;;;4.00;2.60;;;;;;;9.26;78.97;100440.33;129492;1263;114788;-62
2024/02/13 12:15:36;;;;;;;4.30;2.40;;;;;;;9.24;78.23;100440.77;129587;1258;115110;-62
2024/02/13 12:18:47;;;;;;;4.20;2.90;;;;;;;9.21;77.93;100438.92;129450;1262;114840;-62
2024/02/13 12:21:50;;;;;;;4.60;3.10;;;;;;;9.13;77.50;100443.70;129390;1261;128998;-63
2024/02/13 12:24:52;;;;;;;6.70;2.80;;;;;;;9.06;77.57;100442.42;129418;1261;114802;-62
2024/02/13 12:28:00;;;;;;;5.90;3.20;;;;;;;9.00;77.46;100446.03;129554;1261;115190;-62
2024/02/13 12:31:05;;;;;;;11.40;7.00;;;;;;;8.94;77.30;100445.90;129442;1262;114981;-62
2024/02/13 12:34:07;;;;;;;11.30;5.10;;;;;;;8.89;77.23;100450.92;129369;1266;114743;-62
2024/02/13 12:37:15;;;;;;;5.00;3.10;;;;;;;8.86;77.83;100452.48;129638;1280;114720;-62
2024/02/13 12:40:17;;;;;;;9.40;5.90;;;;;;;8.87;77.98;100455.81;129294;1262;128282;-62
2024/02/13 12:43:26;;;;;;;10.00;5.70;;;;;;;8.91;77.67;100453.88;129452;1265;114777;-62
2024/02/13 12:46:30;;;;;;;6.40;4.40;;;;;;;8.95;77.86;100450.48;129453;1261;114792;-63
2024/02/13 12:49:32;;;;;;;8.10;5.10;;;;;;;8.99;77.51;100453.20;129509;1280;114809;-62
2024/02/13 12:52:34;;;;;;;7.90;3.90;;;;;;;9.02;77.16;100453.59;129500;1261;114719;-62
2024/02/13 12:55:38;;;;;;;5.70;3.40;;;;;;;9.05;76.82;100453.34;129562;1261;114787;-62
2024/02/13 12:58:42;;;;;;;6.10;3.60;;;;;;;9.06;76.32;100457.39;129462;1276;127970;-63
2024/02/13 13:01:44;;;;;;;5.30;3.20;;;;;;;9.05;76.48;100457.39;129455;1280;114767;-63
2024/02/13 13:04:46;;;;;;;4.80;2.60;;;;;;;9.06;76.41;100457.55;129581;1261;115160;-64
2024/02/13 13:07:49;;;;;;;8.00;4.20;;;;;;;9.02;76.52;100460.88;129541;1261;115197;-63
2024/02/13 13:10:51;;;;;;;9.80;4.20;;;;;;;8.99;76.16;100462.98;129473;1260;115287;-63
2024/02/13 13:13:55;;;;;;;7.20;4.10;;;;;;;8.93;76.09;100465.55;129388;1274;114796;-64
2024/02/13 13:16:57;;;;;;;9.10;4.50;;;;;;;8.89;76.17;100466.77;129468;1280;114813;-63
2024/02/13 13:19:59;;;;;;;6.80;3.30;;;;;;;8.92;76.34;100463.27;129593;1280;116107;-63
2024/02/13 13:23:03;;;;;;;6.60;3.60;;;;;;;9.01;76.94;100463.96;129536;1257;116449;-64
2024/02/13 13:26:07;;;;;;;7.10;2.90;;;;;;;9.12;76.67;100464.79;129350;1261;227909;-63
2024/02/13 13:29:11;;;;;;;7.30;4.00;;;;;;;9.14;75.98;100466.30;129504;1261;114654;-63
2024/02/13 13:32:15;;;;;;;5.60;3.40;;;;;;;9.17;76.08;100468.33;129359;1259;114769;-64
2024/02/13 13:35:21;;;;;;;4.20;2.80;;;;;;;9.22;76.01;100469.38;129429;1280;129021;-64
2024/02/13 13:38:25;;;;;;;5.90;3.20;;;;;;;9.23;75.43;100473.25;129329;1271;114744;-63
2024/02/13 13:41:27;;;;;;;4.50;2.90;;;;;;;9.21;74.71;100472.09;129449;1263;114720;-63
2024/02/13 13:44:29;;;;;;;3.90;2.80;;;;;;;9.20;74.74;100475.86;129462;1280;115123;-64
2024/02/13 13:47:31;;;;;;;4.70;2.50;;;;;;;9.19;74.29;100477.48;129765;1257;114701;-63
2024/02/13 13:50:36;;;;;;;4.00;2.60;;;;;;;9.18;74.24;100486.63;129565;1259;114928;-65
2024/02/13 13:53:40;;;;;;;6.10;3.40;;;;;;;9.16;74.06;100491.02;129610;1276;128912;-64
2024/02/13 13:56:42;;;;;;;3.90;2.60;;;;;;;9.11;73.40;100492.41;129479;1258;114943;-65
2024/02/13 13:59:44;;;;;;;5.60;2.50;;;;;;;9.04;72.95;100499.65;129774;1258;114818;-63